createdAt,value
2019-02-04T00:01:55.185Z,15.63
2019-02-04T00:06:51.044Z,14.87
2019-02-04T00:11:48.743Z,14.43
2019-02-04T00:16:44.576Z,14.67
2019-02-04T00:21:43.637Z,14.33
2019-02-04T00:26:51.061Z,15.50
2019-02-04T00:31:38.407Z,13.83
2019-02-04T00:36:34.271Z,14.10
2019-02-04T00:41:30.314Z,14.63
2019-02-04T00:46:33.819Z,13.87
2019-02-04T00:51:29.668Z,14.20
2019-02-04T00:56:25.569Z,15.10
2019-02-04T01:01:21.727Z,14.87
2019-02-04T01:06:17.686Z,14.43
2019-02-04T01:11:14.152Z,14.93
2019-02-04T01:16:11.641Z,14.30
2019-02-04T01:21:07.554Z,14.23
2019-02-04T01:26:03.586Z,14.17
2019-02-04T01:30:59.407Z,14.33
2019-02-04T01:35:55.260Z,13.97
2019-02-04T01:40:51.221Z,14.07
2019-02-04T01:45:47.057Z,14.00
2019-02-04T01:50:42.988Z,14.80
2019-02-04T01:55:39.040Z,14.97
2019-02-04T02:00:38.084Z,13.80
2019-02-04T02:05:34.281Z,13.77
2019-02-04T02:10:30.642Z,13.83
2019-02-04T02:15:28.615Z,13.27
2019-02-04T02:20:28.782Z,13.13
2019-02-04T02:25:24.784Z,13.30
2019-02-04T02:30:30.153Z,12.50
2019-02-04T02:35:27.327Z,13.37
2019-02-04T02:40:35.344Z,11.90
2019-02-04T02:45:32.038Z,11.80
2019-02-04T02:50:28.235Z,11.30
2019-02-04T02:55:24.405Z,12.20
2019-02-04T03:00:27.551Z,10.53
2019-02-04T03:05:30.693Z,11.40
2019-02-04T03:10:29.882Z,10.90
2019-02-04T03:15:28.581Z,10.67
2019-02-04T03:20:24.895Z,9.57
2019-02-04T03:25:21.383Z,9.43
2019-02-04T03:30:22.166Z,9.10
2019-02-04T03:35:18.206Z,9.27
2019-02-04T03:40:18.059Z,9.47
2019-02-04T03:45:14.704Z,11.53
2019-02-04T03:50:12.233Z,8.90
2019-02-04T03:55:09.905Z,8.90
2019-02-04T04:00:09.387Z,9.13
2019-02-04T04:05:05.657Z,9.73
2019-02-04T04:10:01.515Z,9.50
2019-02-04T04:14:57.494Z,9.63
2019-02-04T04:19:53.357Z,9.47
2019-02-04T04:24:49.320Z,10.03
2019-02-04T04:29:45.189Z,9.40
2019-02-04T04:34:41.180Z,10.23
2019-02-04T04:39:37.252Z,9.73
2019-02-04T04:44:34.959Z,10.17
2019-02-04T04:49:30.783Z,10.03
2019-02-04T04:54:26.678Z,12.37
2019-02-04T04:59:23.811Z,11.40
2019-02-04T05:04:19.952Z,12.50
2019-02-04T05:09:15.935Z,13.83
2019-02-04T05:14:11.867Z,12.80
2019-02-04T05:19:08.270Z,15.43
2019-02-04T05:24:04.163Z,13.30
2019-02-04T05:29:00.016Z,14.30
2019-02-04T05:33:55.850Z,16.03
2019-02-04T05:38:51.673Z,15.20
2019-02-04T05:43:47.512Z,14.63
2019-02-04T05:48:49.427Z,14.43
2019-02-04T05:53:41.932Z,12.13
2019-02-04T05:58:37.751Z,12.93
2019-02-04T06:03:33.990Z,12.93
2019-02-04T06:08:29.975Z,12.83
2019-02-04T06:13:25.873Z,11.73
2019-02-04T06:18:22.034Z,12.00
2019-02-04T06:23:17.928Z,11.67
2019-02-04T06:28:13.755Z,11.57
2019-02-04T06:33:09.699Z,11.67
2019-02-04T06:38:05.809Z,12.27
2019-02-04T06:43:01.653Z,12.90
2019-02-04T06:47:57.639Z,12.47
2019-02-04T06:52:53.580Z,13.47
2019-02-04T06:57:49.559Z,13.30
2019-02-04T07:02:45.469Z,13.33
2019-02-04T07:07:41.470Z,14.97
2019-02-04T07:12:39.793Z,14.47
2019-02-04T07:17:35.812Z,13.70
2019-02-04T07:22:33.311Z,13.87
2019-02-04T07:27:29.180Z,14.70
2019-02-04T07:32:25.240Z,15.17
2019-02-04T07:37:21.097Z,14.53
2019-02-04T07:42:17.132Z,14.30
2019-02-04T07:47:12.982Z,15.07
2019-02-04T07:52:08.990Z,14.03
2019-02-04T07:57:04.906Z,12.77
2019-02-04T08:02:00.801Z,14.27
2019-02-04T08:06:56.682Z,14.60
2019-02-04T08:11:52.515Z,13.23
2019-02-04T08:16:49.223Z,13.57
2019-02-04T08:21:45.296Z,14.57
2019-02-04T08:26:41.414Z,14.83
2019-02-04T08:31:37.379Z,15.00
2019-02-04T08:36:44.255Z,14.40
2019-02-04T08:41:31.113Z,14.80
2019-02-04T08:46:27.166Z,15.20
2019-02-04T08:51:23.009Z,14.23
2019-02-04T08:56:18.992Z,15.27
2019-02-04T09:01:14.792Z,13.20
2019-02-04T09:06:10.671Z,13.63
2019-02-04T09:11:06.618Z,12.23
2019-02-04T09:16:02.765Z,11.07
2019-02-04T09:20:58.715Z,10.47
2019-02-04T09:25:54.543Z,9.37
2019-02-04T09:30:51.654Z,10.10
2019-02-04T09:35:47.582Z,10.43
2019-02-04T09:40:45.648Z,11.73
2019-02-04T09:45:43.115Z,10.90
2019-02-04T09:50:39.619Z,11.50
2019-02-04T09:55:37.814Z,10.30
2019-02-04T10:00:35.335Z,11.53
2019-02-04T10:05:31.412Z,11.97
2019-02-04T10:10:28.884Z,12.10
2019-02-04T10:15:28.652Z,11.67
2019-02-04T10:20:33.562Z,11.67
2019-02-04T10:25:26.492Z,13.83
2019-02-04T10:30:23.791Z,14.57
2019-02-04T10:35:20.985Z,13.97
2019-02-04T10:40:22.219Z,13.43
2019-02-04T10:45:20.628Z,15.63
2019-02-04T10:50:20.957Z,14.60
2019-02-04T10:55:18.670Z,13.67
2019-02-04T11:00:18.392Z,13.27
2019-02-04T11:05:19.526Z,13.97
2019-02-04T11:10:16.847Z,13.77
2019-02-04T11:15:14.725Z,14.33
2019-02-04T11:20:32.102Z,14.33
2019-02-04T11:25:28.485Z,13.33
2019-02-04T11:30:28.593Z,12.40
2019-02-04T11:35:24.744Z,14.57
2019-02-04T11:40:31.765Z,14.63
2019-02-04T11:45:28.003Z,14.43
2019-02-04T11:50:24.342Z,14.60
2019-02-04T11:55:20.445Z,13.20
2019-02-04T12:00:20.524Z,13.33
2019-02-04T12:05:18.726Z,12.43
2019-02-04T12:10:19.657Z,13.33
2019-02-04T12:15:23.296Z,13.77
2019-02-04T12:20:19.854Z,11.40
2019-02-04T12:25:21.353Z,9.80
2019-02-04T12:30:31.202Z,10.30
2019-02-04T12:35:27.185Z,10.17
2019-02-04T12:40:23.848Z,10.50
2019-02-04T12:45:27.364Z,10.57
2019-02-04T12:50:23.871Z,10.87
2019-02-04T12:55:24.284Z,10.10
2019-02-04T13:00:35.174Z,11.73
2019-02-04T13:05:46.838Z,8.83
2019-02-04T13:11:12.275Z,10.67
2019-02-04T13:16:15.907Z,10.53
2019-02-04T13:22:49.457Z,9.40
2019-02-04T13:26:40.963Z,9.67
2019-02-04T13:32:54.528Z,9.60
2019-02-04T13:38:09.239Z,8.97
2019-02-04T13:43:06.204Z,10.03
2019-02-04T13:48:02.155Z,9.23
2019-02-04T13:52:58.559Z,10.33
2019-02-04T13:57:54.707Z,9.00
2019-02-04T14:02:58.861Z,11.70
2019-02-04T14:07:49.561Z,8.47
2019-02-04T14:12:45.662Z,9.20
2019-02-04T14:17:41.811Z,10.57
2019-02-04T14:22:38.582Z,11.87
2019-02-04T14:27:37.194Z,10.90
2019-02-04T14:32:33.839Z,9.77
2019-02-04T14:37:32.563Z,10.00
2019-02-04T14:42:29.999Z,9.00
2019-02-04T14:47:43.236Z,9.30
2019-02-04T14:53:39.516Z,9.40
2019-02-04T14:59:30.901Z,8.47
2019-02-04T15:04:52.394Z,9.13
2019-02-04T15:10:13.072Z,9.57
2019-02-04T15:15:33.349Z,9.13
2019-02-04T15:21:18.406Z,10.53
2019-02-04T15:27:09.767Z,9.53
2019-02-04T15:33:12.421Z,9.50
2019-02-04T15:38:56.158Z,10.70
2019-02-04T15:44:57.613Z,10.17
2019-02-04T15:50:44.367Z,9.83
2019-02-04T15:55:42.140Z,10.13
2019-02-04T16:00:40.194Z,9.80
2019-02-04T16:05:40.195Z,10.20
2019-02-04T16:10:36.575Z,9.83
2019-02-04T16:15:32.981Z,10.57
2019-02-04T16:20:31.627Z,9.30
2019-02-04T16:25:27.693Z,10.07
2019-02-04T16:30:24.421Z,9.47
2019-02-04T16:35:21.659Z,10.67
2019-02-04T16:40:20.248Z,10.23
2019-02-04T16:45:17.518Z,10.83
2019-02-04T16:50:22.600Z,10.87
2019-02-04T16:55:25.547Z,10.23
2019-02-04T17:00:29.066Z,16.67
2019-02-04T17:05:26.903Z,14.23
2019-02-04T17:10:23.984Z,12.00
2019-02-04T17:15:26.227Z,11.07
2019-02-04T17:20:38.492Z,13.47
2019-02-04T17:25:35.004Z,12.83
2019-02-04T17:30:38.144Z,13.43
2019-02-04T17:35:37.018Z,13.83
2019-02-04T17:40:42.342Z,15.00
2019-02-04T17:45:47.859Z,18.87
2019-02-04T17:50:55.578Z,20.10
2019-02-04T17:55:58.543Z,12.30
2019-02-04T18:01:13.529Z,12.43
2019-02-04T18:06:21.408Z,12.83
2019-02-04T18:11:22.645Z,12.17
2019-02-04T18:16:24.769Z,12.63
2019-02-04T18:21:24.617Z,11.47
2019-02-04T18:26:27.674Z,12.37
2019-02-04T18:31:27.182Z,12.27
2019-02-04T18:36:37.299Z,11.23
2019-02-04T18:41:43.001Z,13.20
2019-02-04T18:46:39.520Z,14.13
2019-02-04T18:51:49.373Z,13.13
2019-02-04T18:56:57.561Z,13.97
2019-02-04T19:01:53.952Z,12.90
2019-02-04T19:06:58.150Z,14.07
2019-02-04T19:12:10.137Z,12.87
2019-02-04T19:29:52.970Z,13.50
2019-02-04T19:41:05.051Z,14.13
2019-02-04T19:46:03.755Z,15.87
2019-02-04T19:51:12.626Z,13.17
2019-02-04T19:56:30.035Z,13.97
2019-02-04T20:01:45.299Z,15.87
2019-02-04T20:12:24.707Z,17.23
2019-02-04T20:17:26.847Z,18.17
2019-02-04T20:22:46.570Z,17.07
2019-02-04T20:27:42.795Z,17.70
2019-02-04T20:33:04.325Z,18.40
2019-02-04T20:38:20.590Z,18.03
2019-02-04T20:43:16.532Z,16.93
2019-02-04T20:48:17.831Z,17.40
2019-02-04T20:53:15.365Z,17.37
2019-02-04T20:58:12.036Z,18.20
2019-02-04T21:03:11.573Z,16.80
2019-02-04T21:08:08.795Z,17.83
2019-02-04T21:13:05.693Z,19.90
2019-02-04T21:18:03.476Z,18.20
2019-02-04T21:23:27.621Z,18.57
2019-02-04T21:28:28.671Z,18.50
2019-02-04T21:33:27.633Z,17.90
2019-02-04T21:38:28.337Z,17.80
2019-02-04T21:43:27.016Z,18.67
2019-02-04T21:48:23.135Z,18.47
2019-02-04T21:53:23.545Z,18.93
2019-02-04T21:58:19.572Z,20.00
2019-02-04T22:03:24.863Z,18.10
2019-02-04T22:08:26.312Z,18.23
2019-02-04T22:13:30.390Z,17.73
2019-02-04T22:18:36.558Z,16.50
2019-02-04T22:23:35.832Z,17.30
2019-02-04T22:28:39.203Z,17.03
2019-02-04T22:33:35.281Z,17.20
2019-02-04T22:38:43.470Z,19.03
2019-02-04T22:43:39.383Z,18.67
2019-02-04T22:48:43.289Z,19.57
2019-02-04T22:53:45.332Z,19.77
2019-02-04T22:58:59.326Z,20.20
2019-02-04T23:03:56.489Z,19.57
2019-02-04T23:08:53.378Z,19.37
2019-02-04T23:13:51.938Z,20.80
2019-02-04T23:18:50.695Z,22.70
2019-02-04T23:23:54.942Z,21.63
2019-02-04T23:28:58.570Z,20.90
2019-02-04T23:33:54.809Z,21.63
2019-02-04T23:38:51.980Z,22.50
2019-02-04T23:43:48.139Z,22.13
2019-02-04T23:48:45.459Z,21.37
2019-02-04T23:53:41.831Z,21.10
2019-02-04T23:58:37.892Z,21.73
